Time;durP1;ratioP1;P1;durP2;ratioP2;P2;SDS_P1;SDS_P2;PMS_P1;PMS_P2;Temp;Humidity;BMP_temperature;BMP_pressure;BME280_temperature;BME280_humidity;BME280_pressure;Samples;Min_cycle;Max_cycle;Signal;HPM_P1;HPM_P2
2022/03/02 00:00:34;;;;;;;19.07;13.40;;;7.10;55.10;;;;;;5039485;28;20208;-71
2022/03/02 00:03:00;;;;;;;22.87;14.63;;;7.00;55.20;;;;;;5042274;28;20203;-71
2022/03/02 00:05:27;;;;;;;15.67;11.93;;;7.10;55.10;;;;;;5042743;28;20204;-71
2022/03/02 00:07:53;;;;;;;19.47;13.80;;;7.10;55.10;;;;;;5040358;28;20262;-71
2022/03/02 00:10:19;;;;;;;18.77;12.33;;;7.10;54.90;;;;;;5039736;28;20552;-72
2022/03/02 00:12:44;;;;;;;17.93;13.73;;;6.80;55.20;;;;;;5046089;28;20187;-72
2022/03/02 00:15:10;;;;;;;19.83;12.73;;;6.90;55.40;;;;;;5039724;28;20474;-72
2022/03/02 00:17:36;;;;;;;20.70;12.70;;;6.90;55.20;;;;;;5024963;28;20212;-72
2022/03/02 00:20:04;;;;;;;17.33;13.00;;;6.80;55.20;;;;;;5040350;28;20211;-72
2022/03/02 00:22:30;;;;;;;19.90;13.80;;;6.60;55.40;;;;;;5042964;28;20431;-72
2022/03/02 00:24:55;;;;;;;22.20;13.50;;;6.60;55.90;;;;;;5039173;28;20471;-71
2022/03/02 00:27:24;;;;;;;24.43;13.27;;;6.60;55.70;;;;;;5036803;28;20184;-72
2022/03/02 00:29:50;;;;;;;18.03;12.30;;;6.60;55.40;;;;;;5036805;28;20212;-72
2022/03/02 00:32:16;;;;;;;19.10;13.50;;;6.50;56.10;;;;;;5042052;28;20440;-73
2022/03/02 00:34:42;;;;;;;19.03;13.50;;;6.40;56.20;;;;;;5038388;28;20820;-72
2022/03/02 00:37:07;;;;;;;25.30;14.40;;;6.20;56.60;;;;;;5040487;28;20526;-73
2022/03/02 00:39:34;;;;;;;19.20;13.97;;;6.00;57.20;;;;;;5038458;28;20195;-72
2022/03/02 00:41:59;;;;;;;17.97;13.37;;;6.10;58.00;;;;;;5040576;28;20572;-73
2022/03/02 00:44:25;;;;;;;17.53;12.10;;;6.10;57.40;;;;;;5035607;28;20466;-72
2022/03/02 00:46:51;;;;;;;19.90;14.10;;;6.30;57.30;;;;;;5038892;28;20176;-71
2022/03/02 00:49:17;;;;;;;22.37;13.13;;;6.40;57.10;;;;;;5040845;28;20208;-71
2022/03/02 00:51:43;;;;;;;15.83;11.90;;;6.60;56.80;;;;;;5037972;28;20548;-71
2022/03/02 00:54:09;;;;;;;19.77;13.07;;;6.60;56.90;;;;;;5037631;28;20430;-71
2022/03/02 00:56:35;;;;;;;21.70;13.03;;;6.70;56.60;;;;;;5037967;28;20206;-73
2022/03/02 00:59:00;;;;;;;21.73;14.13;;;6.50;56.80;;;;;;5040906;28;21075;-73
2022/03/02 01:01:26;;;;;;;18.53;13.27;;;6.50;56.90;;;;;;5039911;28;20661;-72
2022/03/02 01:03:51;;;;;;;18.30;12.07;;;6.50;56.20;;;;;;5037792;28;20192;-72
2022/03/02 01:06:18;;;;;;;18.00;12.50;;;6.40;57.00;;;;;;5037823;28;20786;-72
2022/03/02 01:08:43;;;;;;;17.17;11.47;;;6.30;56.80;;;;;;5036272;28;20188;-72
2022/03/02 01:11:10;;;;;;;20.20;13.00;;;6.30;56.70;;;;;;5039167;28;20438;-72
2022/03/02 01:13:35;;;;;;;20.97;12.10;;;6.30;56.50;;;;;;5039848;28;21179;-72
2022/03/02 01:16:01;;;;;;;21.80;12.50;;;6.20;56.30;;;;;;5039660;28;20442;-72
2022/03/02 01:18:27;;;;;;;16.13;11.97;;;6.00;57.00;;;;;;5039159;28;20273;-73
2022/03/02 01:20:53;;;;;;;18.67;13.60;;;6.10;56.70;;;;;;5038364;28;20600;-73
2022/03/02 01:23:19;;;;;;;18.63;14.00;;;5.50;57.70;;;;;;5022754;28;20442;-74
2022/03/02 01:25:44;;;;;;;19.80;13.00;;;5.70;58.10;;;;;;5039405;28;20208;-73
2022/03/02 01:28:10;;;;;;;18.27;11.70;;;6.10;57.20;;;;;;5038532;28;20666;-73
2022/03/02 01:30:36;;;;;;;18.87;12.57;;;6.20;56.60;;;;;;5040324;28;20204;-73
2022/03/02 01:33:01;;;;;;;14.33;10.70;;;6.10;57.10;;;;;;5041324;28;20191;-74
2022/03/02 01:35:27;;;;;;;21.60;12.37;;;6.10;57.00;;;;;;5039346;28;20199;-73
2022/03/02 01:37:52;;;;;;;17.07;12.77;;;5.90;57.40;;;;;;5040625;28;20194;-72
2022/03/02 01:40:18;;;;;;;16.30;12.27;;;6.10;57.30;;;;;;5041664;28;20214;-71
2022/03/02 01:42:44;;;;;;;19.43;12.03;;;6.40;58.30;;;;;;5043176;28;20184;-72
2022/03/02 01:45:12;;;;;;;18.00;12.47;;;6.30;57.90;;;;;;5025887;28;20203;-72
2022/03/02 01:47:38;;;;;;;20.00;13.00;;;6.00;58.50;;;;;;5042151;28;20425;-71
2022/03/02 01:50:07;;;;;;;17.47;13.37;;;6.00;58.50;;;;;;5042628;28;20450;-71
2022/03/02 01:52:33;;;;;;;19.70;13.50;;;5.90;58.70;;;;;;5042624;28;20564;-72
2022/03/02 01:54:58;;;;;;;21.80;12.80;;;5.80;59.00;;;;;;5043078;28;20915;-73
2022/03/02 01:57:24;;;;;;;20.70;13.77;;;5.70;59.60;;;;;;5043034;28;20249;-72
2022/03/02 01:59:50;;;;;;;18.13;13.03;;;5.70;59.30;;;;;;5043578;28;20214;-72
2022/03/02 02:02:16;;;;;;;20.20;14.43;;;5.60;59.70;;;;;;5044618;28;20450;-73
2022/03/02 02:04:42;;;;;;;17.20;12.53;;;5.60;59.70;;;;;;5039796;28;20211;-74
2022/03/02 02:07:07;;;;;;;18.50;13.67;;;5.60;59.80;;;;;;5034736;28;21161;-73
2022/03/02 02:09:33;;;;;;;19.90;13.30;;;5.40;60.30;;;;;;5042202;28;20683;-73
2022/03/02 02:11:59;;;;;;;19.10;13.33;;;5.40;60.70;;;;;;5042687;28;20922;-72
2022/03/02 02:14:25;;;;;;;19.40;13.53;;;5.60;60.20;;;;;;5041632;28;20184;-73
2022/03/02 02:16:51;;;;;;;20.20;13.47;;;5.40;60.70;;;;;;5041837;28;20850;-72
2022/03/02 02:19:17;;;;;;;17.87;12.90;;;5.60;60.70;;;;;;5042054;28;20469;-72
2022/03/02 02:21:46;;;;;;;19.33;13.13;;;5.50;60.60;;;;;;5041911;28;20517;-72
2022/03/02 02:24:12;;;;;;;17.30;13.00;;;5.50;60.50;;;;;;5043099;28;20207;-72
2022/03/02 02:26:37;;;;;;;20.50;13.90;;;5.60;61.00;;;;;;5040853;28;20419;-71
2022/03/02 02:29:05;;;;;;;20.33;13.17;;;5.70;61.30;;;;;;5038384;28;20504;-71
2022/03/02 02:31:30;;;;;;;19.93;13.07;;;5.80;60.10;;;;;;5043841;28;20708;-71
2022/03/02 02:33:56;;;;;;;17.80;12.03;;;5.40;60.70;;;;;;5040368;28;20521;-72
2022/03/02 02:36:23;;;;;;;17.50;11.63;;;5.40;61.10;;;;;;5041885;28;20225;-72
2022/03/02 02:38:48;;;;;;;20.00;13.30;;;5.30;61.50;;;;;;5025372;28;21063;-72
2022/03/02 02:41:16;;;;;;;19.50;13.93;;;5.40;61.70;;;;;;5040490;28;20484;-71
2022/03/02 02:43:42;;;;;;;17.57;13.20;;;5.50;61.30;;;;;;5040012;28;20172;-71
2022/03/02 02:46:09;;;;;;;18.27;13.10;;;5.30;61.80;;;;;;5023606;28;20461;-71
2022/03/02 02:48:35;;;;;;;19.63;12.70;;;5.40;61.80;;;;;;5041401;28;20487;-71
2022/03/02 02:51:00;;;;;;;17.00;12.80;;;5.30;62.20;;;;;;5041343;28;20433;-72
2022/03/02 02:53:26;;;;;;;16.40;12.93;;;5.50;62.00;;;;;;5038386;28;20187;-72
2022/03/02 02:55:53;;;;;;;22.43;13.90;;;5.30;62.10;;;;;;5039592;28;20200;-70
2022/03/02 02:58:19;;;;;;;16.97;12.10;;;5.00;63.00;;;;;;5027432;28;20261;-70
2022/03/02 03:00:46;;;;;;;18.67;14.07;;;4.70;64.00;;;;;;5041278;28;21591;-70
2022/03/02 03:03:13;;;;;;;20.63;13.17;;;4.80;64.40;;;;;;5042270;28;20328;-68
2022/03/02 03:05:39;;;;;;;19.70;13.83;;;4.70;65.00;;;;;;5040142;28;20509;-69
2022/03/02 03:08:10;;;;;;;16.83;13.23;;;4.70;64.40;;;;;;5041912;28;20482;-71
2022/03/02 03:10:36;;;;;;;17.70;13.27;;;4.70;64.50;;;;;;5039805;28;20726;-71
2022/03/02 03:13:03;;;;;;;19.23;13.43;;;4.80;64.90;;;;;;5042037;28;20481;-71
2022/03/02 03:15:29;;;;;;;22.57;13.67;;;4.90;64.00;;;;;;5040493;28;20517;-72
2022/03/02 03:17:56;;;;;;;17.83;13.00;;;4.90;64.60;;;;;;5040858;28;20431;-72
2022/03/02 03:20:25;;;;;;;18.67;13.10;;;4.90;64.30;;;;;;5044204;28;20443;-72
2022/03/02 03:22:55;;;;;;;17.77;13.17;;;4.80;64.30;;;;;;5040863;28;20604;-72
2022/03/02 03:25:22;;;;;;;16.23;12.70;;;4.50;65.50;;;;;;5040185;28;20530;-71
2022/03/02 03:27:48;;;;;;;17.47;12.80;;;4.50;65.70;;;;;;5040514;28;20434;-70
2022/03/02 03:30:15;;;;;;;21.17;13.57;;;4.60;66.20;;;;;;5044401;28;20497;-72
2022/03/02 03:32:41;;;;;;;17.03;12.10;;;4.80;65.30;;;;;;5037893;28;20438;-71
2022/03/02 03:35:08;;;;;;;17.17;13.10;;;4.90;65.10;;;;;;5040737;28;20469;-72
2022/03/02 03:37:34;;;;;;;23.07;13.77;;;4.60;65.20;;;;;;5041163;28;20537;-71
2022/03/02 03:40:00;;;;;;;18.43;11.67;;;4.40;67.20;;;;;;5039123;28;20541;-69
2022/03/02 03:42:26;;;;;;;17.27;12.17;;;4.50;66.90;;;;;;5024802;28;20496;-71
2022/03/02 03:44:52;;;;;;;19.90;12.60;;;4.60;66.90;;;;;;5039161;28;20219;-69
2022/03/02 03:47:18;;;;;;;17.13;12.47;;;4.90;66.30;;;;;;5037352;28;20434;-72
2022/03/02 03:49:43;;;;;;;19.97;12.63;;;4.90;66.10;;;;;;5040914;28;20215;-69
2022/03/02 03:52:09;;;;;;;16.37;12.60;;;4.90;65.60;;;;;;5041354;28;20445;-69
2022/03/02 03:54:36;;;;;;;22.57;11.97;;;4.50;66.60;;;;;;5040985;28;20663;-69
2022/03/02 03:57:02;;;;;;;17.63;12.70;;;4.30;68.20;;;;;;5041188;28;20240;-69
2022/03/02 03:59:27;;;;;;;18.00;12.13;;;4.20;68.40;;;;;;5040824;28;20496;-70
2022/03/02 04:01:53;;;;;;;19.13;11.97;;;4.20;69.50;;;;;;5042183;28;20496;-70
2022/03/02 04:04:19;;;;;;;19.10;13.30;;;4.50;68.60;;;;;;5040319;28;20211;-70
2022/03/02 04:06:45;;;;;;;19.37;12.97;;;4.20;69.50;;;;;;5024358;28;20265;-70
2022/03/02 04:09:10;;;;;;;19.20;14.00;;;4.40;69.80;;;;;;5039397;28;20482;-70
2022/03/02 04:11:36;;;;;;;18.53;12.10;;;4.50;68.90;;;;;;5039164;28;20191;-70
2022/03/02 04:14:03;;;;;;;17.53;12.70;;;4.50;69.10;;;;;;5040595;28;20220;-70
2022/03/02 04:16:28;;;;;;;20.60;12.53;;;4.50;69.40;;;;;;5037980;28;20221;-70
2022/03/02 04:18:54;;;;;;;20.13;12.93;;;4.60;68.80;;;;;;5040431;28;20465;-70
2022/03/02 04:21:20;;;;;;;17.70;11.93;;;4.60;69.10;;;;;;5040193;28;20793;-71
2022/03/02 04:23:46;;;;;;;20.30;13.20;;;4.50;69.10;;;;;;5037344;28;20930;-71
2022/03/02 04:26:11;;;;;;;16.87;11.17;;;4.60;68.90;;;;;;5039405;28;20214;-70
2022/03/02 04:28:37;;;;;;;18.60;13.47;;;4.60;68.60;;;;;;5040692;28;20195;-70
2022/03/02 04:31:03;;;;;;;16.00;12.10;;;4.50;68.60;;;;;;5040430;28;20176;-71
2022/03/02 04:33:29;;;;;;;17.97;11.67;;;4.30;69.30;;;;;;5038609;28;20282;-71
2022/03/02 04:35:54;;;;;;;15.30;11.73;;;4.20;70.20;;;;;;5041332;28;20258;-71
2022/03/02 04:38:20;;;;;;;18.90;11.50;;;4.40;69.90;;;;;;5040024;28;20229;-71
2022/03/02 04:40:45;;;;;;;17.93;11.30;;;4.40;69.50;;;;;;5037736;28;20212;-71
2022/03/02 04:43:11;;;;;;;13.63;10.30;;;3.80;69.80;;;;;;5039589;28;20215;-71
2022/03/02 04:45:36;;;;;;;15.47;9.90;;;3.70;71.50;;;;;;5040351;28;20688;-70
2022/03/02 04:48:02;;;;;;;15.40;11.13;;;3.30;72.80;;;;;;5035383;28;20564;-69
2022/03/02 04:50:28;;;;;;;17.00;12.90;;;3.20;74.40;;;;;;5039565;28;20278;-69
2022/03/02 04:52:55;;;;;;;19.60;11.43;;;3.60;74.90;;;;;;5038305;28;20194;-70
2022/03/02 04:55:21;;;;;;;14.40;10.20;;;3.90;73.40;;;;;;5039457;28;20669;-70
2022/03/02 04:57:56;;;;;;;18.67;11.70;;;3.80;73.60;;;;;;5037579;28;20517;-71
2022/03/02 05:00:34;;;;;;;20.40;10.87;;;4.10;73.10;;;;;;5040996;28;20457;-71
2022/03/02 05:03:02;;;;;;;15.87;10.60;;;4.00;72.80;;;;;;5039461;28;20455;-71
2022/03/02 05:05:30;;;;;;;16.03;12.43;;;3.80;72.80;;;;;;5040338;28;20867;-71
2022/03/02 05:07:55;;;;;;;16.40;11.63;;;3.70;73.80;;;;;;5039997;28;20441;-71
2022/03/02 05:10:22;;;;;;;16.97;11.10;;;3.90;73.90;;;;;;5037565;28;20447;-71
2022/03/02 05:12:49;;;;;;;23.27;10.43;;;3.90;73.60;;;;;;5038105;28;20211;-71
2022/03/02 05:15:16;;;;;;;17.37;10.97;;;3.70;74.70;;;;;;5039754;28;20438;-72
2022/03/02 05:17:43;;;;;;;17.90;11.60;;;4.00;74.00;;;;;;5044068;28;20430;-71
2022/03/02 05:20:11;;;;;;;17.40;11.40;;;4.20;73.40;;;;;;5041550;28;20489;-71
2022/03/02 05:22:36;;;;;;;15.37;11.10;;;4.20;73.20;;;;;;5042721;28;20471;-71
2022/03/02 05:25:03;;;;;;;17.23;12.20;;;3.90;73.30;;;;;;5042840;28;21148;-71
2022/03/02 05:27:29;;;;;;;17.73;11.30;;;4.10;74.00;;;;;;5037999;28;20422;-71
2022/03/02 05:29:55;;;;;;;17.57;12.27;;;4.10;74.30;;;;;;5042075;28;20481;-71
2022/03/02 05:32:21;;;;;;;23.00;12.33;;;4.00;75.00;;;;;;5041384;28;20191;-71
2022/03/02 05:34:46;;;;;;;15.30;11.40;;;3.30;76.70;;;;;;5041612;28;20619;-72
2022/03/02 05:37:12;;;;;;;18.33;13.30;;;3.40;79.30;;;;;;5042526;28;20187;-72
2022/03/02 05:39:38;;;;;;;30.00;13.70;;;3.60;78.40;;;;;;5042874;28;20288;-72
2022/03/02 05:42:03;;;;;;;19.00;12.63;;;3.90;78.40;;;;;;5043718;28;20202;-73
2022/03/02 05:44:29;;;;;;;16.00;11.23;;;3.80;77.80;;;;;;5044471;28;20604;-73
2022/03/02 05:46:55;;;;;;;17.20;13.43;;;4.00;78.90;;;;;;5042189;28;20317;-71
2022/03/02 05:49:21;;;;;;;19.20;13.13;;;4.00;78.40;;;;;;5045769;28;20529;-72
2022/03/02 05:51:46;;;;;;;16.90;12.63;;;3.80;78.60;;;;;;5043018;28;20590;-72
2022/03/02 05:54:12;;;;;;;19.77;12.90;;;3.60;80.30;;;;;;5041322;28;20195;-70
2022/03/02 05:56:39;;;;;;;17.27;11.83;;;3.80;80.10;;;;;;5042498;28;20629;-72
2022/03/02 05:59:09;;;;;;;18.27;12.60;;;3.90;79.30;;;;;;5043828;28;20458;-72
2022/03/02 06:01:36;;;;;;;20.13;12.00;;;4.00;77.80;;;;;;5038790;28;20859;-72
2022/03/02 06:04:03;;;;;;;24.53;13.73;;;4.10;77.90;;;;;;5041657;28;20430;-72
2022/03/02 06:06:31;;;;;;;23.83;13.83;;;4.20;76.90;;;;;;5044119;28;20430;-71
2022/03/02 06:08:56;;;;;;;21.53;14.33;;;4.20;76.70;;;;;;5043366;28;20448;-70
2022/03/02 06:11:23;;;;;;;24.27;13.80;;;4.30;76.00;;;;;;5041487;28;20434;-70
2022/03/02 06:13:50;;;;;;;19.53;11.60;;;4.30;75.50;;;;;;5042183;28;20548;-70
2022/03/02 06:16:16;;;;;;;17.17;11.63;;;4.30;75.30;;;;;;5041669;28;20433;-71
2022/03/02 06:18:41;;;;;;;19.20;12.43;;;4.30;75.40;;;;;;5027081;28;20515;-71
2022/03/02 06:21:09;;;;;;;15.17;11.83;;;4.40;75.00;;;;;;5040577;28;20524;-71
2022/03/02 06:23:35;;;;;;;17.60;11.70;;;4.00;76.00;;;;;;5042314;28;20310;-73
2022/03/02 06:26:01;;;;;;;17.43;12.20;;;4.00;76.50;;;;;;5041835;28;20545;-70
2022/03/02 06:28:27;;;;;;;18.47;11.97;;;4.10;76.70;;;;;;5041862;28;20184;-72
2022/03/02 06:30:53;;;;;;;17.37;12.23;;;4.00;76.80;;;;;;5044235;28;20443;-72
2022/03/02 06:33:19;;;;;;;18.33;12.57;;;4.10;76.70;;;;;;5043876;28;20196;-72
2022/03/02 06:35:46;;;;;;;17.70;12.80;;;4.30;77.00;;;;;;5044023;28;20526;-72
2022/03/02 06:38:12;;;;;;;16.30;12.20;;;4.30;77.80;;;;;;5043927;28;20454;-71
2022/03/02 06:40:38;;;;;;;19.07;13.10;;;4.30;79.90;;;;;;5040477;28;20863;-69
2022/03/02 06:43:11;;;;;;;21.00;12.13;;;4.40;80.30;;;;;;5042608;28;20901;-69
2022/03/02 06:45:59;;;;;;;17.50;11.40;;;4.30;76.80;;;;;;5038221;28;20547;-69
2022/03/02 06:48:29;;;;;;;15.70;11.77;;;4.30;76.30;;;;;;5037668;28;20420;-70
2022/03/02 06:50:58;;;;;;;19.83;13.50;;;4.40;76.30;;;;;;5026922;28;21126;-70
2022/03/02 06:53:35;;;;;;;32.00;13.37;;;4.50;76.20;;;;;;5041819;28;20465;-71
2022/03/02 06:56:06;;;;;;;20.20;12.80;;;4.40;77.40;;;;;;5044010;28;20438;-71
2022/03/02 06:58:50;;;;;;;27.83;13.57;;;4.40;77.80;;;;;;5044721;28;20804;-72
2022/03/02 07:01:23;;;;;;;18.77;13.67;;;4.20;79.30;;;;;;5050055;28;20814;-71
2022/03/02 07:03:52;;;;;;;17.87;11.97;;;3.90;79.50;;;;;;5044466;28;20434;-72
2022/03/02 07:06:18;;;;;;;19.50;13.13;;;4.00;81.00;;;;;;5026094;28;20465;-71
2022/03/02 07:08:45;;;;;;;20.93;13.17;;;3.80;81.80;;;;;;5025325;28;20820;-71
2022/03/02 07:11:11;;;;;;;18.53;13.10;;;4.00;81.90;;;;;;5041468;28;20193;-71
2022/03/02 07:13:37;;;;;;;18.03;11.83;;;4.00;82.40;;;;;;5042277;28;20431;-70
2022/03/02 07:16:03;;;;;;;20.10;12.70;;;3.70;83.20;;;;;;5039351;28;20434;-72
2022/03/02 07:18:29;;;;;;;19.87;12.57;;;3.70;84.30;;;;;;5002338;28;20446;-74
2022/03/02 07:20:57;;;;;;;18.10;12.23;;;3.60;85.20;;;;;;5040524;28;20204;-79
2022/03/02 07:23:27;;;;;;;20.30;12.37;;;3.40;87.40;;;;;;5041290;28;20212;-78
2022/03/02 07:25:59;;;;;;;20.80;12.23;;;3.60;86.60;;;;;;5026212;28;20466;-77
2022/03/02 07:28:26;;;;;;;19.20;12.33;;;3.30;89.40;;;;;;5025180;28;21423;-76
2022/03/02 07:30:53;;;;;;;14.70;11.60;;;3.20;90.30;;;;;;5041710;28;20471;-78
2022/03/02 07:33:22;;;;;;;18.47;13.40;;;3.30;90.00;;;;;;5041985;28;20455;-80
2022/03/02 07:35:56;;;;;;;21.10;12.67;;;3.50;89.20;;;;;;5040840;28;20963;-75
2022/03/02 07:38:21;;;;;;;18.57;12.50;;;3.30;90.10;;;;;;5023563;28;20402;-76
2022/03/02 07:40:48;;;;;;;18.73;12.63;;;3.50;90.30;;;;;;5040243;28;20981;-79
2022/03/02 07:43:19;;;;;;;21.97;12.57;;;3.30;90.70;;;;;;5021682;28;20729;-75
2022/03/02 07:45:44;;;;;;;19.23;12.33;;;3.40;90.50;;;;;;5020681;28;20465;-76
2022/03/02 07:48:10;;;;;;;19.47;12.13;;;3.70;90.50;;;;;;5025323;28;20599;-76
2022/03/02 07:50:38;;;;;;;17.10;12.37;;;3.80;89.40;;;;;;5039379;28;20195;-76
2022/03/02 07:53:05;;;;;;;17.80;11.93;;;3.70;90.00;;;;;;5037507;28;20198;-74
2022/03/02 07:55:33;;;;;;;19.60;13.97;;;4.10;89.30;;;;;;5040654;28;20576;-75
2022/03/02 07:58:02;;;;;;;20.37;12.60;;;3.90;89.10;;;;;;5036435;28;20967;-75
2022/03/02 08:00:28;;;;;;;19.00;11.80;;;3.90;89.60;;;;;;5039543;28;20480;-78
2022/03/02 08:02:57;;;;;;;23.43;14.47;;;4.00;90.00;;;;;;5038728;28;20991;-80
2022/03/02 08:05:23;;;;;;;16.43;11.13;;;4.20;88.70;;;;;;5034749;28;20577;-80
2022/03/02 08:07:50;;;;;;;20.20;13.87;;;4.40;88.30;;;;;;5037944;28;20485;-79
2022/03/02 08:10:16;;;;;;;14.80;12.03;;;4.50;87.20;;;;;;5041815;28;20542;-80
2022/03/02 08:12:42;;;;;;;25.70;14.43;;;4.50;87.40;;;;;;5036064;28;20287;-78
2022/03/02 08:15:09;;;;;;;19.17;13.30;;;4.70;88.00;;;;;;5039352;28;21161;-77
2022/03/02 08:17:34;;;;;;;20.43;13.90;;;4.60;86.90;;;;;;5037436;28;20549;-76
2022/03/02 08:20:00;;;;;;;25.27;14.37;;;4.80;86.80;;;;;;5021857;28;20545;-75
2022/03/02 08:22:28;;;;;;;23.50;14.97;;;4.90;86.50;;;;;;5040282;28;20558;-73
2022/03/02 08:25:12;;;;;;;17.07;13.13;;;5.00;85.80;;;;;;5034508;28;20485;-76
2022/03/02 08:27:39;;;;;;;18.93;14.13;;;5.10;85.70;;;;;;5036726;28;20430;-75
2022/03/02 08:30:06;;;;;;;20.60;13.57;;;5.10;85.00;;;;;;5041091;28;20549;-73
2022/03/02 08:32:45;;;;;;;21.17;13.13;;;5.10;84.70;;;;;;5040119;28;20422;-74
2022/03/02 08:35:11;;;;;;;16.10;11.83;;;5.40;83.80;;;;;;5020800;28;20517;-72
2022/03/02 08:37:38;;;;;;;17.63;12.63;;;5.60;83.00;;;;;;5039114;28;20458;-78
2022/03/02 08:40:05;;;;;;;26.63;13.37;;;5.60;81.60;;;;;;5040327;28;20473;-74
2022/03/02 08:42:32;;;;;;;20.70;13.57;;;5.60;80.70;;;;;;5036973;28;20477;-73
2022/03/02 08:44:58;;;;;;;23.87;13.90;;;5.60;80.30;;;;;;5038464;28;20504;-76
2022/03/02 08:47:24;;;;;;;15.40;12.37;;;5.70;80.70;;;;;;5044232;28;20425;-74
2022/03/02 08:49:51;;;;;;;21.90;14.23;;;5.80;80.50;;;;;;5026304;28;20473;-76
2022/03/02 08:52:24;;;;;;;18.07;13.87;;;5.90;80.50;;;;;;5037897;28;20430;-75
2022/03/02 08:54:50;;;;;;;18.90;13.43;;;5.90;81.60;;;;;;5044762;28;20530;-75
2022/03/02 08:57:17;;;;;;;21.87;12.70;;;6.00;81.10;;;;;;5041227;28;20477;-74
2022/03/02 08:59:44;;;;;;;20.80;13.67;;;5.90;80.80;;;;;;5043065;28;21040;-75
2022/03/02 09:02:10;;;;;;;21.33;13.53;;;6.10;80.10;;;;;;5029054;28;20457;-73
2022/03/02 09:04:37;;;;;;;27.10;14.43;;;6.10;79.30;;;;;;5042229;28;20474;-73
2022/03/02 09:07:05;;;;;;;22.93;13.53;;;6.10;79.30;;;;;;5044195;28;20184;-76
2022/03/02 09:09:31;;;;;;;18.77;12.93;;;6.20;79.70;;;;;;5042845;28;20447;-75
2022/03/02 09:11:57;;;;;;;24.90;13.80;;;6.10;80.00;;;;;;5030028;28;20421;-78
2022/03/02 09:14:23;;;;;;;17.57;13.03;;;6.20;79.70;;;;;;5041451;28;20442;-73
2022/03/02 09:16:50;;;;;;;23.90;13.87;;;6.30;79.30;;;;;;5043888;28;20430;-73
2022/03/02 09:19:16;;;;;;;19.40;13.53;;;6.40;78.00;;;;;;5047703;28;20453;-77
2022/03/02 09:21:44;;;;;;;21.83;13.63;;;6.50;77.70;;;;;;5025776;28;20516;-75
2022/03/02 09:24:11;;;;;;;18.17;12.80;;;6.60;77.50;;;;;;5044822;28;20815;-76
2022/03/02 09:26:38;;;;;;;24.00;13.97;;;6.70;76.90;;;;;;5042318;28;20442;-77
2022/03/02 09:29:05;;;;;;;19.70;14.00;;;6.60;77.50;;;;;;5042735;28;20459;-77
2022/03/02 09:31:34;;;;;;;22.20;13.57;;;6.60;77.10;;;;;;5042759;28;20424;-77
2022/03/02 09:34:03;;;;;;;22.03;14.70;;;6.60;75.80;;;;;;5044540;28;20426;-78
2022/03/02 09:36:34;;;;;;;20.90;14.50;;;6.60;75.60;;;;;;5044423;28;20424;-75
2022/03/02 09:39:02;;;;;;;17.40;13.70;;;6.50;75.00;;;;;;5043446;28;20546;-77
2022/03/02 09:41:35;;;;;;;21.07;14.23;;;6.70;75.90;;;;;;5040386;28;20536;-76
2022/03/02 09:44:04;;;;;;;22.03;13.93;;;6.70;76.30;;;;;;5038806;28;20444;-78
2022/03/02 09:46:37;;;;;;;22.43;12.17;;;6.70;75.00;;;;;;5046029;28;20426;-76
2022/03/02 09:49:12;;;;;;;17.70;13.23;;;6.30;74.80;;;;;;5044681;28;20461;-79
2022/03/02 09:51:40;;;;;;;22.70;15.73;;;6.50;75.20;;;;;;5044973;28;20433;-77
2022/03/02 09:54:08;;;;;;;18.50;13.10;;;6.80;74.20;;;;;;5047184;28;20781;-78
2022/03/02 09:56:35;;;;;;;19.60;12.97;;;6.80;74.30;;;;;;5027856;28;20435;-78
2022/03/02 09:59:03;;;;;;;20.93;12.53;;;6.80;74.20;;;;;;5038865;28;20539;-79
2022/03/02 10:01:32;;;;;;;18.83;12.40;;;7.00;73.90;;;;;;5039274;28;20450;-74
2022/03/02 10:04:11;;;;;;;20.27;13.50;;;7.10;70.30;;;;;;5042846;28;20769;-75
2022/03/02 10:06:41;;;;;;;17.93;11.90;;;7.00;70.10;;;;;;5042794;28;20445;-77
2022/03/02 10:09:09;;;;;;;16.50;13.93;;;7.00;70.60;;;;;;5045363;28;20925;-75
2022/03/02 10:11:39;;;;;;;18.10;12.40;;;7.30;70.80;;;;;;5043789;28;20431;-84
2022/03/02 10:14:04;;;;;;;19.80;13.40;;;7.20;71.10;;;;;;5041808;28;20427;-79
2022/03/02 10:16:35;;;;;;;18.47;12.67;;;7.30;70.40;;;;;;5040538;28;20658;-78
2022/03/02 10:19:03;;;;;;;22.53;13.67;;;7.20;69.90;;;;;;5044906;28;20207;-77
2022/03/02 10:21:31;;;;;;;20.20;12.87;;;7.30;69.40;;;;;;5041195;28;20430;-79
2022/03/02 10:24:00;;;;;;;16.97;13.10;;;7.20;68.60;;;;;;5041747;28;20456;-76
2022/03/02 10:26:29;;;;;;;21.03;12.87;;;7.10;68.30;;;;;;5039117;28;20497;-80
2022/03/02 10:29:06;;;;;;;17.93;12.80;;;7.10;67.60;;;;;;5041737;28;20451;-74
2022/03/02 10:32:02;;;;;;;20.90;12.80;;;7.00;67.10;;;;;;5041442;28;20457;-76
2022/03/02 10:34:51;;;;;;;19.23;12.93;;;7.10;67.60;;;;;;5042680;28;20493;-74
2022/03/02 10:37:19;;;;;;;26.90;14.83;;;7.00;68.10;;;;;;5040255;28;21090;-74
2022/03/02 10:40:09;;;;;;;16.00;12.90;;;7.20;67.50;;;;;;5042611;28;20439;-75
2022/03/02 10:42:42;;;;;;;21.77;15.43;;;7.20;67.60;;;;;;5040762;28;20476;-78
2022/03/02 10:45:25;;;;;;;18.07;13.63;;;7.40;67.70;;;;;;5041823;28;20503;-78
2022/03/02 10:48:13;;;;;;;18.67;14.30;;;7.40;66.90;;;;;;5039390;28;20898;-78
2022/03/02 10:50:40;;;;;;;20.63;13.47;;;7.30;67.60;;;;;;5042586;28;20751;-76
2022/03/02 10:53:13;;;;;;;19.43;14.30;;;7.40;66.70;;;;;;5041738;28;20448;-76
2022/03/02 10:55:48;;;;;;;20.90;13.77;;;7.40;67.20;;;;;;5042141;28;20462;-79
2022/03/02 10:58:17;;;;;;;26.73;15.47;;;7.50;66.60;;;;;;5042784;28;20770;-77
2022/03/02 11:00:44;;;;;;;22.77;13.90;;;7.50;66.90;;;;;;5041930;28;20503;-77
2022/03/02 11:03:12;;;;;;;19.00;13.00;;;7.50;65.90;;;;;;5044511;28;20453;-80
2022/03/02 11:05:39;;;;;;;18.90;13.67;;;7.40;66.00;;;;;;5041142;28;20457;-73
2022/03/02 11:08:05;;;;;;;17.40;13.13;;;7.60;66.70;;;;;;5040326;28;20472;-77
2022/03/02 11:10:37;;;;;;;20.20;12.60;;;7.80;66.60;;;;;;5045554;28;20809;-81
2022/03/02 11:13:14;;;;;;;18.63;14.27;;;7.80;65.90;;;;;;5045459;28;20430;-82
2022/03/02 11:15:57;;;;;;;19.50;13.63;;;7.30;66.70;;;;;;5041013;28;20445;-81
2022/03/02 11:18:48;;;;;;;20.43;14.27;;;7.40;68.90;;;;;;5041329;28;20468;-81
2022/03/02 11:21:15;;;;;;;23.07;13.90;;;7.70;66.90;;;;;;5043460;28;20575;-79
2022/03/02 11:23:43;;;;;;;23.97;15.30;;;7.70;66.50;;;;;;5040900;28;20449;-80
2022/03/02 11:26:14;;;;;;;21.37;15.83;;;7.70;66.30;;;;;;5041538;28;20530;-80
2022/03/02 11:28:48;;;;;;;19.60;13.37;;;7.90;67.20;;;;;;5042477;28;20799;-77
2022/03/02 11:31:21;;;;;;;18.17;13.30;;;8.00;67.50;;;;;;5043069;28;20426;-81
2022/03/02 11:33:47;;;;;;;17.40;13.43;;;8.30;65.50;;;;;;5042148;28;20458;-81
2022/03/02 11:36:17;;;;;;;19.33;13.77;;;8.50;64.70;;;;;;5037663;28;20422;-79
2022/03/02 11:38:47;;;;;;;18.37;13.90;;;8.20;64.60;;;;;;5041093;28;20446;-80
2022/03/02 11:41:14;;;;;;;23.67;14.00;;;8.50;65.00;;;;;;5040450;28;20960;-81
2022/03/02 11:43:40;;;;;;;20.40;14.27;;;7.90;64.40;;;;;;5040550;28;20802;-77
2022/03/02 11:46:08;;;;;;;20.60;14.97;;;8.30;64.90;;;;;;5041633;28;20967;-78
2022/03/02 11:48:40;;;;;;;23.10;13.70;;;8.40;64.10;;;;;;5040697;28;20942;-76
2022/03/02 11:51:14;;;;;;;21.90;13.00;;;8.80;61.90;;;;;;5041912;28;20418;-77
2022/03/02 11:53:50;;;;;;;19.00;14.03;;;9.10;61.10;;;;;;5041877;28;20434;-78
2022/03/02 11:56:18;;;;;;;20.27;14.30;;;9.20;59.90;;;;;;5039954;28;20876;-77
2022/03/02 11:59:11;;;;;;;22.53;13.43;;;9.30;59.90;;;;;;5041787;28;20441;-76
2022/03/02 12:01:44;;;;;;;21.23;13.90;;;9.40;58.70;;;;;;5033965;28;20815;-83
2022/03/02 12:04:14;;;;;;;21.20;14.07;;;9.50;58.70;;;;;;5039898;28;20442;-77
2022/03/02 12:06:45;;;;;;;17.17;12.90;;;9.40;58.10;;;;;;5040141;28;20443;-77
2022/03/02 12:09:27;;;;;;;19.90;13.30;;;9.60;57.80;;;;;;5041559;28;21185;-75
2022/03/02 12:12:06;;;;;;;20.83;14.80;;;9.70;57.50;;;;;;5025481;28;20438;-78
2022/03/02 12:15:01;;;;;;;18.20;13.33;;;9.70;57.50;;;;;;5041633;28;20458;-79
2022/03/02 12:17:36;;;;;;;20.93;14.10;;;9.40;57.50;;;;;;5039877;28;20453;-80
2022/03/02 12:20:06;;;;;;;21.43;14.67;;;9.50;58.30;;;;;;5042226;28;20489;-79
2022/03/02 12:22:38;;;;;;;22.03;14.40;;;9.10;58.40;;;;;;5037416;28;20918;-79
2022/03/02 12:25:06;;;;;;;22.47;13.00;;;8.80;59.60;;;;;;5038683;28;20493;-79
2022/03/02 12:27:31;;;;;;;20.87;13.57;;;9.20;59.10;;;;;;5040568;28;20425;-78
2022/03/02 12:30:01;;;;;;;20.83;13.50;;;9.30;58.40;;;;;;5039951;28;20454;-78
2022/03/02 12:32:35;;;;;;;18.90;14.20;;;9.40;59.00;;;;;;5042023;28;20748;-79
2022/03/02 12:35:03;;;;;;;28.43;14.10;;;9.40;58.20;;;;;;5041472;28;20788;-78
2022/03/02 12:37:30;;;;;;;18.93;12.80;;;9.30;58.50;;;;;;5039022;28;20551;-79
2022/03/02 12:39:56;;;;;;;18.87;14.20;;;9.50;58.70;;;;;;5039868;28;20462;-78